Ana Sayfa
METAR-TAF:

METAR-TAF

Havaalanları :

Gatesville Municipal Airport

Gatesville, Teksas, Amerika Birleşik Devletleri

Enlem: 31-25-16N, Boylam: 097-47-49W, yükseklik: 276 m

Güncel hava durumu gözlemi

Rapor saat 15:35 UTC de 10 dakika önce yapıldı.
Rüzgar doğu/güneydoğudan 4 kt
Sıcaklık 22°C
Nem 83%
Basınç 1015 hPa
Görüş mesafesi: 16.1 km
Açık gökyüzü

METAR: KGOP 241535Z AUTO 12004KT 10SM CLR 22/19 A2996 RMK AO2 LTG DSNT E-SW

Saat: 10:45 (15:45 UTC)


TAF: eksik

4.000'den fazla havaalanı için hava durumu gözlemleri ve tahminleri (METAR ve TAF raporları).

Kullanılabilir istasyonlar harita üzerinde sarı ve kırmızı noktalarla gösterilir.

İstasyonun adını görmek için fareyi noktanın üzerinde gezdirin.

Sonrasında hava gözlem ve tahminlerini görmek için tıklayın.

Haritayı değiştirmek için: yaklaştırmak için siyah artı işaretli yeşil düğmeye ve uzaklaştırmak için de eksi işaretli düğmeye hızla tıklayın; bitişik haritalar için yeşil okları kullanın.


METAR-TAF: